sensor_id;sensor_type;location;lat;lon;timestamp;pressure;altitude;pressure_sealevel;temperature;humidity
73748;BME280;62056;52.130;5.428;2023-09-19T00:00:35;100901.41;;;15.54;81.09
73748;BME280;62056;52.130;5.428;2023-09-19T00:03:02;100906.94;;;15.49;81.47
73748;BME280;62056;52.130;5.428;2023-09-19T00:05:34;100908.81;;;15.49;81.27
73748;BME280;62056;52.130;5.428;2023-09-19T00:08:04;100918.28;;;15.46;81.29
73748;BME280;62056;52.130;5.428;2023-09-19T00:10:32;100909.78;;;15.44;81.15
73748;BME280;62056;52.130;5.428;2023-09-19T00:13:03;100917.34;;;15.42;81.56
73748;BME280;62056;52.130;5.428;2023-09-19T00:15:41;100927.28;;;15.42;81.39
73748;BME280;62056;52.130;5.428;2023-09-19T00:18:09;100925.22;;;15.38;81.56
73748;BME280;62056;52.130;5.428;2023-09-19T00:20:36;100925.88;;;15.35;81.57
73748;BME280;62056;52.130;5.428;2023-09-19T00:23:05;100926.19;;;15.34;81.97
73748;BME280;62056;52.130;5.428;2023-09-19T00:25:35;100922.72;;;15.33;82.54
73748;BME280;62056;52.130;5.428;2023-09-19T00:28:04;100925.72;;;15.32;82.37
73748;BME280;62056;52.130;5.428;2023-09-19T00:30:36;100924.94;;;15.31;82.07
73748;BME280;62056;52.130;5.428;2023-09-19T00:33:05;100930.28;;;15.31;82.80
73748;BME280;62056;52.130;5.428;2023-09-19T00:35:34;100920.19;;;15.28;82.20
73748;BME280;62056;52.130;5.428;2023-09-19T00:38:01;100933.28;;;15.30;82.43
73748;BME280;62056;52.130;5.428;2023-09-19T00:40:28;100932.50;;;15.29;82.58
73748;BME280;62056;52.130;5.428;2023-09-19T00:42:59;100931.22;;;15.27;82.50
73748;BME280;62056;52.130;5.428;2023-09-19T00:45:27;100931.22;;;15.27;82.93
73748;BME280;62056;52.130;5.428;2023-09-19T00:47:55;100931.22;;;15.27;82.70
73748;BME280;62056;52.130;5.428;2023-09-19T00:50:25;100933.09;;;15.26;82.80
73748;BME280;62056;52.130;5.428;2023-09-19T00:52:55;100941.94;;;15.27;82.73
73748;BME280;62056;52.130;5.428;2023-09-19T00:55:24;100933.09;;;15.26;82.79
73748;BME280;62056;52.130;5.428;2023-09-19T00:57:52;100938.47;;;15.26;83.08
73748;BME280;62056;52.130;5.428;2023-09-19T01:00:19;100942.09;;;15.22;82.95
73748;BME280;62056;52.130;5.428;2023-09-19T01:02:47;100950.28;;;15.25;83.28
73748;BME280;62056;52.130;5.428;2023-09-19T01:05:15;100948.69;;;15.24;83.35
73748;BME280;62056;52.130;5.428;2023-09-19T01:07:42;100952.81;;;15.22;83.72
73748;BME280;62056;52.130;5.428;2023-09-19T01:10:17;100956.25;;;15.22;83.41
73748;BME280;62056;52.130;5.428;2023-09-19T01:31:33;100955.47;;;15.13;84.69
73748;BME280;62056;52.130;5.428;2023-09-19T01:34:03;100959.25;;;15.12;84.89
73748;BME280;62056;52.130;5.428;2023-09-19T01:36:36;100957.69;;;15.11;85.09
73748;BME280;62056;52.130;5.428;2023-09-19T01:39:06;100953.41;;;15.10;84.96
73748;BME280;62056;52.130;5.428;2023-09-19T01:41:44;100953.91;;;15.12;85.38
73748;BME280;62056;52.130;5.428;2023-09-19T01:44:17;100953.91;;;15.12;85.14
73748;BME280;62056;52.130;5.428;2023-09-19T01:46:48;100966.19;;;15.13;85.03
73748;BME280;62056;52.130;5.428;2023-09-19T01:49:33;100962.72;;;15.12;85.78
73748;BME280;62056;52.130;5.428;2023-09-19T01:52:11;100964.91;;;15.10;85.65
73748;BME280;62056;52.130;5.428;2023-09-19T01:54:50;100966.34;;;15.08;85.78
73748;BME280;62056;52.130;5.428;2023-09-19T01:57:22;100966.34;;;15.08;85.95
73748;BME280;62056;52.130;5.428;2023-09-19T01:59:52;100964.13;;;15.10;86.33
73748;BME280;62056;52.130;5.428;2023-09-19T02:02:21;100963.66;;;15.08;86.06
73748;BME280;62056;52.130;5.428;2023-09-19T02:04:49;100968.88;;;15.04;86.17
73748;BME280;62056;52.130;5.428;2023-09-19T02:07:17;100970.72;;;15.04;85.95
73748;BME280;62056;52.130;5.428;2023-09-19T02:09:45;100973.88;;;15.06;86.30
73748;BME280;62056;52.130;5.428;2023-09-19T02:12:11;100965.38;;;15.04;85.65
73748;BME280;62056;52.130;5.428;2023-09-19T02:14:39;100963.34;;;15.01;86.13
73748;BME280;62056;52.130;5.428;2023-09-19T02:17:06;100963.34;;;15.01;86.58
73748;BME280;62056;52.130;5.428;2023-09-19T02:19:34;100956.72;;;14.98;86.43
73748;BME280;62056;52.130;5.428;2023-09-19T02:22:00;100959.72;;;14.96;86.73
73748;BME280;62056;52.130;5.428;2023-09-19T02:24:37;100959.41;;;14.98;86.42
73748;BME280;62056;52.130;5.428;2023-09-19T02:27:05;100965.53;;;14.98;86.79
73748;BME280;62056;52.130;5.428;2023-09-19T02:29:32;100967.25;;;14.94;86.46
73748;BME280;62056;52.130;5.428;2023-09-19T02:32:00;100966.47;;;14.94;86.44
73748;BME280;62056;52.130;5.428;2023-09-19T02:34:28;100969.94;;;14.94;86.51
73748;BME280;62056;52.130;5.428;2023-09-19T02:36:55;100971.84;;;14.94;86.16
73748;BME280;62056;52.130;5.428;2023-09-19T02:39:22;100976.38;;;14.93;86.35
73748;BME280;62056;52.130;5.428;2023-09-19T02:41:50;100980.66;;;14.94;86.10
73748;BME280;62056;52.130;5.428;2023-09-19T02:44:17;100979.06;;;14.93;86.40
73748;BME280;62056;52.130;5.428;2023-09-19T02:46:43;100980.19;;;14.92;86.34
73748;BME280;62056;52.130;5.428;2023-09-19T02:49:10;100982.06;;;14.92;86.12
73748;BME280;62056;52.130;5.428;2023-09-19T02:51:37;100969.28;;;14.89;85.90
73748;BME280;62056;52.130;5.428;2023-09-19T02:54:04;100978.75;;;14.86;85.90
73748;BME280;62056;52.130;5.428;2023-09-19T02:56:31;100975.09;;;14.82;85.96
73748;BME280;62056;52.130;5.428;2023-09-19T02:58:58;100973.84;;;14.80;85.75
73748;BME280;62056;52.130;5.428;2023-09-19T03:01:27;100990.50;;;14.76;85.94
73748;BME280;62056;52.130;5.428;2023-09-19T03:03:57;100991.94;;;14.74;85.29
73748;BME280;62056;52.130;5.428;2023-09-19T03:06:24;100981.06;;;14.70;85.53
73748;BME280;62056;52.130;5.428;2023-09-19T03:08:53;100988.28;;;14.70;85.33
73748;BME280;62056;52.130;5.428;2023-09-19T03:11:20;100972.53;;;14.68;84.68
73748;BME280;62056;52.130;5.428;2023-09-19T03:13:53;100969.25;;;14.63;85.45
73748;BME280;62056;52.130;5.428;2023-09-19T03:16:20;100982.91;;;14.61;85.00
73748;BME280;62056;52.130;5.428;2023-09-19T03:18:48;100978.50;;;14.56;84.70
73748;BME280;62056;52.130;5.428;2023-09-19T03:21:16;100977.31;;;14.49;84.68
73748;BME280;62056;52.130;5.428;2023-09-19T03:23:43;100981.41;;;14.46;84.79
73748;BME280;62056;52.130;5.428;2023-09-19T03:26:12;100983.63;;;14.44;84.42
73748;BME280;62056;52.130;5.428;2023-09-19T03:28:41;100976.53;;;14.40;84.66
73748;BME280;62056;52.130;5.428;2023-09-19T03:31:09;100976.34;;;14.36;84.47
73748;BME280;62056;52.130;5.428;2023-09-19T03:33:37;100974.25;;;14.33;84.82
73748;BME280;62056;52.130;5.428;2023-09-19T03:36:04;100977.25;;;14.31;84.08
73748;BME280;62056;52.130;5.428;2023-09-19T03:38:32;100983.84;;;14.25;84.37
73748;BME280;62056;52.130;5.428;2023-09-19T03:41:01;100982.53;;;14.23;84.08
73748;BME280;62056;52.130;5.428;2023-09-19T03:43:28;100974.66;;;14.17;84.17
73748;BME280;62056;52.130;5.428;2023-09-19T03:45:55;100966.47;;;14.14;83.95
73748;BME280;62056;52.130;5.428;2023-09-19T03:48:22;100964.41;;;14.11;83.92
73748;BME280;62056;52.130;5.428;2023-09-19T03:50:49;100966.91;;;14.07;83.60
73748;BME280;62056;52.130;5.428;2023-09-19T03:53:16;100968.31;;;14.05;83.75
73748;BME280;62056;52.130;5.428;2023-09-19T03:55:45;100977.75;;;14.02;83.22
73748;BME280;62056;52.130;5.428;2023-09-19T03:58:13;100975.66;;;13.99;83.37
73748;BME280;62056;52.130;5.428;2023-09-19T04:00:40;100983.19;;;13.97;83.68
73748;BME280;62056;52.130;5.428;2023-09-19T04:03:07;100983.50;;;13.95;82.74
73748;BME280;62056;52.130;5.428;2023-09-19T04:05:34;100992.31;;;13.96;82.50
73748;BME280;62056;52.130;5.428;2023-09-19T04:08:01;100992.63;;;13.94;82.89
73748;BME280;62056;52.130;5.428;2023-09-19T04:10:28;101002.03;;;13.92;81.74
73748;BME280;62056;52.130;5.428;2023-09-19T04:12:56;100997.59;;;13.87;82.48
73748;BME280;62056;52.130;5.428;2023-09-19T04:15:23;101002.44;;;13.85;82.45
73748;BME280;62056;52.130;5.428;2023-09-19T04:17:51;101001.97;;;13.83;82.54
73748;BME280;62056;52.130;5.428;2023-09-19T04:20:18;101002.59;;;13.80;82.35
73748;BME280;62056;52.130;5.428;2023-09-19T04:23:00;101004.78;;;13.78;82.22
73748;BME280;62056;52.130;5.428;2023-09-19T04:25:27;101014.69;;;13.77;82.04
73748;BME280;62056;52.130;5.428;2023-09-19T04:27:54;101020.31;;;13.76;81.85
73748;BME280;62056;52.130;5.428;2023-09-19T04:30:21;101020.59;;;13.74;82.38
73748;BME280;62056;52.130;5.428;2023-09-19T04:32:48;101022.22;;;13.75;81.33
73748;BME280;62056;52.130;5.428;2023-09-19T04:35:18;101029.44;;;13.75;81.26
73748;BME280;62056;52.130;5.428;2023-09-19T04:37:45;101033.69;;;13.76;81.28
73748;BME280;62056;52.130;5.428;2023-09-19T04:40:11;101047.66;;;13.73;81.14
73748;BME280;62056;52.130;5.428;2023-09-19T04:42:40;101057.88;;;13.71;80.23
73748;BME280;62056;52.130;5.428;2023-09-19T04:45:10;101052.03;;;13.69;80.80
73748;BME280;62056;52.130;5.428;2023-09-19T04:47:40;101051.22;;;13.68;81.04
73748;BME280;62056;52.130;5.428;2023-09-19T04:50:08;101050.13;;;13.69;81.04
73748;BME280;62056;52.130;5.428;2023-09-19T04:52:41;101046.97;;;13.67;80.92
73748;BME280;62056;52.130;5.428;2023-09-19T04:55:13;101042.72;;;13.66;81.49
73748;BME280;62056;52.130;5.428;2023-09-19T04:57:49;101040.38;;;13.65;81.23
73748;BME280;62056;52.130;5.428;2023-09-19T05:00:17;101046.00;;;13.63;81.30
73748;BME280;62056;52.130;5.428;2023-09-19T05:02:48;101046.00;;;13.63;80.77
73748;BME280;62056;52.130;5.428;2023-09-19T05:05:15;101039.06;;;13.62;80.57
73748;BME280;62056;52.130;5.428;2023-09-19T05:07:44;101046.28;;;13.62;80.76
73748;BME280;62056;52.130;5.428;2023-09-19T05:10:11;101043.91;;;13.60;81.07
73748;BME280;62056;52.130;5.428;2023-09-19T05:12:39;101051.94;;;13.60;81.22
73748;BME280;62056;52.130;5.428;2023-09-19T05:15:06;101051.16;;;13.60;80.98
73748;BME280;62056;52.130;5.428;2023-09-19T05:17:34;101053.53;;;13.61;80.71
73748;BME280;62056;52.130;5.428;2023-09-19T05:20:02;101053.53;;;13.61;81.10
73748;BME280;62056;52.130;5.428;2023-09-19T05:22:42;101052.41;;;13.62;81.04
73748;BME280;62056;52.130;5.428;2023-09-19T05:25:10;101055.09;;;13.62;81.16
73748;BME280;62056;52.130;5.428;2023-09-19T05:27:37;101058.56;;;13.63;81.38
73748;BME280;62056;52.130;5.428;2023-09-19T05:30:04;101058.38;;;13.59;81.13
73748;BME280;62056;52.130;5.428;2023-09-19T05:32:31;101056.50;;;13.60;81.56
73748;BME280;62056;52.130;5.428;2023-09-19T05:34:58;101053.31;;;13.57;81.38
73748;BME280;62056;52.130;5.428;2023-09-19T05:37:24;101051.44;;;13.58;81.47
73748;BME280;62056;52.130;5.428;2023-09-19T05:39:52;101042.94;;;13.56;81.49
73748;BME280;62056;52.130;5.428;2023-09-19T05:42:22;101040.75;;;13.58;81.35
73748;BME280;62056;52.130;5.428;2023-09-19T05:44:49;101037.78;;;13.60;81.40
73748;BME280;62056;52.130;5.428;2023-09-19T05:47:15;101044.22;;;13.59;81.85
73748;BME280;62056;52.130;5.428;2023-09-19T05:49:43;101045.50;;;13.61;82.16
73748;BME280;62056;52.130;5.428;2023-09-19T05:52:10;101054.00;;;13.63;81.88
73748;BME280;62056;52.130;5.428;2023-09-19T05:54:37;101054.00;;;13.63;82.34
73748;BME280;62056;52.130;5.428;2023-09-19T05:57:04;101054.50;;;13.65;82.21
73748;BME280;62056;52.130;5.428;2023-09-19T05:59:31;101060.03;;;13.69;82.26
73748;BME280;62056;52.130;5.428;2023-09-19T06:01:59;101061.91;;;13.68;82.24
73748;BME280;62056;52.130;5.428;2023-09-19T06:04:26;101065.06;;;13.70;82.69
73748;BME280;62056;52.130;5.428;2023-09-19T06:06:52;101059.13;;;13.73;82.25
73748;BME280;62056;52.130;5.428;2023-09-19T06:09:19;101066.84;;;13.75;82.25
73748;BME280;62056;52.130;5.428;2023-09-19T06:11:49;101074.25;;;13.78;82.28
73748;BME280;62056;52.130;5.428;2023-09-19T06:14:16;101076.63;;;13.80;82.40
73748;BME280;62056;52.130;5.428;2023-09-19T06:16:44;101084.03;;;13.83;82.14
73748;BME280;62056;52.130;5.428;2023-09-19T06:19:12;101087.50;;;13.83;82.78
73748;BME280;62056;52.130;5.428;2023-09-19T06:21:39;101082.16;;;13.83;82.27
73748;BME280;62056;52.130;5.428;2023-09-19T06:24:06;101089.09;;;13.84;82.63
73748;BME280;62056;52.130;5.428;2023-09-19T06:26:33;101085.31;;;13.85;82.60
73748;BME280;62056;52.130;5.428;2023-09-19T06:29:00;101088.47;;;13.87;82.59
73748;BME280;62056;52.130;5.428;2023-09-19T06:31:26;101086.00;;;13.91;82.49
73748;BME280;62056;52.130;5.428;2023-09-19T06:33:53;101088.56;;;13.96;82.93
73748;BME280;62056;52.130;5.428;2023-09-19T06:36:20;101075.84;;;14.02;83.44
73748;BME280;62056;52.130;5.428;2023-09-19T06:38:48;101070.09;;;14.08;83.26
73748;BME280;62056;52.130;5.428;2023-09-19T06:41:15;101072.84;;;14.17;84.16
73748;BME280;62056;52.130;5.428;2023-09-19T06:43:44;101072.88;;;14.26;84.54
73748;BME280;62056;52.130;5.428;2023-09-19T06:46:10;101068.06;;;14.36;85.24
73748;BME280;62056;52.130;5.428;2023-09-19T06:48:39;101068.91;;;14.46;86.09
73748;BME280;62056;52.130;5.428;2023-09-19T06:51:07;101078.88;;;14.54;85.61
73748;BME280;62056;52.130;5.428;2023-09-19T06:53:34;101074.09;;;14.65;86.48
73748;BME280;62056;52.130;5.428;2023-09-19T06:56:02;101071.94;;;14.75;86.43
73748;BME280;62056;52.130;5.428;2023-09-19T06:58:30;101068.66;;;14.87;86.19
73748;BME280;62056;52.130;5.428;2023-09-19T07:00:58;101075.44;;;14.93;87.08
73748;BME280;62056;52.130;5.428;2023-09-19T07:03:25;101080.38;;;15.00;84.80
73748;BME280;62056;52.130;5.428;2023-09-19T07:05:55;101072.84;;;15.11;86.84
73748;BME280;62056;52.130;5.428;2023-09-19T07:08:22;101072.09;;;15.19;85.82
73748;BME280;62056;52.130;5.428;2023-09-19T07:10:49;101072.75;;;15.33;87.27
73748;BME280;62056;52.130;5.428;2023-09-19T07:13:16;101075.75;;;15.41;86.52
73748;BME280;62056;52.130;5.428;2023-09-19T07:15:46;101071.50;;;15.48;87.03
73748;BME280;62056;52.130;5.428;2023-09-19T07:18:14;101077.97;;;15.56;86.88
73748;BME280;62056;52.130;5.428;2023-09-19T07:20:46;101085.88;;;15.61;85.65
73748;BME280;62056;52.130;5.428;2023-09-19T07:23:19;101085.56;;;15.71;86.39
73748;BME280;62056;52.130;5.428;2023-09-19T07:25:50;101092.06;;;15.79;83.71
73748;BME280;62056;52.130;5.428;2023-09-19T07:28:18;101101.38;;;15.90;85.08
73748;BME280;62056;52.130;5.428;2023-09-19T07:30:45;101090.34;;;15.92;83.54
73748;BME280;62056;52.130;5.428;2023-09-19T07:33:15;101096.00;;;15.99;84.08
73748;BME280;62056;52.130;5.428;2023-09-19T07:35:46;101093.66;;;16.06;82.85
73748;BME280;62056;52.130;5.428;2023-09-19T07:38:14;101106.41;;;16.09;83.07
73748;BME280;62056;52.130;5.428;2023-09-19T07:40:42;101104.03;;;16.16;83.72
73748;BME280;62056;52.130;5.428;2023-09-19T07:43:09;101106.41;;;16.27;83.88
73748;BME280;62056;52.130;5.428;2023-09-19T07:45:36;101103.25;;;16.33;83.92
73748;BME280;62056;52.130;5.428;2023-09-19T07:48:03;101094.38;;;16.33;79.20
73748;BME280;62056;52.130;5.428;2023-09-19T07:50:40;101112.53;;;16.45;82.92
73748;BME280;62056;52.130;5.428;2023-09-19T07:53:10;101097.38;;;16.49;81.83
73748;BME280;62056;52.130;5.428;2023-09-19T07:55:40;101090.41;;;16.56;81.25
73748;BME280;62056;52.130;5.428;2023-09-19T07:58:25;101114.06;;;16.63;80.15
73748;BME280;62056;52.130;5.428;2023-09-19T08:01:25;101100.63;;;16.72;80.93
73748;BME280;62056;52.130;5.428;2023-09-19T08:04:10;101096.34;;;16.79;79.53
73748;BME280;62056;52.130;5.428;2023-09-19T08:06:53;101109.44;;;16.81;80.21
73748;BME280;62056;52.130;5.428;2023-09-19T08:09:26;101101.84;;;16.92;80.13
73748;BME280;62056;52.130;5.428;2023-09-19T08:11:56;101112.41;;;16.97;79.54
73748;BME280;62056;52.130;5.428;2023-09-19T08:14:24;101111.91;;;17.04;79.94
73748;BME280;62056;52.130;5.428;2023-09-19T08:16:56;101097.31;;;17.13;79.74
73748;BME280;62056;52.130;5.428;2023-09-19T08:19:24;101100.63;;;17.10;78.34
73748;BME280;62056;52.130;5.428;2023-09-19T08:21:58;101096.50;;;17.22;79.02
73748;BME280;62056;52.130;5.428;2023-09-19T08:28:22;101102.28;;;17.32;78.41
73748;BME280;62056;52.130;5.428;2023-09-19T08:30:51;101100.97;;;17.38;77.13
73748;BME280;62056;52.130;5.428;2023-09-19T08:33:19;101096.19;;;17.44;77.22
73748;BME280;62056;52.130;5.428;2023-09-19T08:35:46;101100.78;;;17.44;76.66
73748;BME280;62056;52.130;5.428;2023-09-19T08:38:36;101099.00;;;17.48;75.56
73748;BME280;62056;52.130;5.428;2023-09-19T08:41:22;101098.50;;;17.54;76.52
73748;BME280;62056;52.130;5.428;2023-09-19T08:44:02;101095.75;;;17.63;76.31
73748;BME280;62056;52.130;5.428;2023-09-19T08:46:46;101092.06;;;17.68;76.12
73748;BME280;62056;52.130;5.428;2023-09-19T08:49:44;101091.75;;;17.69;76.20
73748;BME280;62056;52.130;5.428;2023-09-19T08:52:32;101087.53;;;17.80;76.12
73748;BME280;62056;52.130;5.428;2023-09-19T08:55:18;101085.63;;;17.81;75.37
73748;BME280;62056;52.130;5.428;2023-09-19T08:58:09;101087.00;;;17.96;75.29
73748;BME280;62056;52.130;5.428;2023-09-19T09:00:52;101086.66;;;17.97;75.45
73748;BME280;62056;52.130;5.428;2023-09-19T09:03:34;101093.22;;;18.09;75.66
73748;BME280;62056;52.130;5.428;2023-09-19T09:06:04;101084.47;;;18.12;75.42
73748;BME280;62056;52.130;5.428;2023-09-19T09:08:37;101088.53;;;18.18;74.66
73748;BME280;62056;52.130;5.428;2023-09-19T09:11:09;101093.13;;;18.17;72.85
73748;BME280;62056;52.130;5.428;2023-09-19T09:13:39;101085.88;;;18.30;74.16
73748;BME280;62056;52.130;5.428;2023-09-19T09:16:08;101085.09;;;18.30;73.64
73748;BME280;62056;52.130;5.428;2023-09-19T09:18:36;101091.94;;;18.39;73.43
73748;BME280;62056;52.130;5.428;2023-09-19T09:21:06;101087.91;;;18.46;73.04
73748;BME280;62056;52.130;5.428;2023-09-19T09:23:37;101083.25;;;18.55;73.30
73748;BME280;62056;52.130;5.428;2023-09-19T09:26:04;101080.34;;;18.72;71.77
73748;BME280;62056;52.130;5.428;2023-09-19T09:28:34;101088.19;;;18.65;71.85
73748;BME280;62056;52.130;5.428;2023-09-19T09:31:03;101075.06;;;18.76;71.07
73748;BME280;62056;52.130;5.428;2023-09-19T09:33:36;101080.00;;;18.74;69.85
73748;BME280;62056;52.130;5.428;2023-09-19T09:36:06;101075.72;;;18.73;69.41
73748;BME280;62056;52.130;5.428;2023-09-19T09:38:45;101083.81;;;18.73;69.96
73748;BME280;62056;52.130;5.428;2023-09-19T09:41:13;101075.75;;;18.85;69.34
73748;BME280;62056;52.130;5.428;2023-09-19T09:43:53;101073.97;;;18.89;68.80
73748;BME280;62056;52.130;5.428;2023-09-19T09:46:29;101072.09;;;18.90;69.18
73748;BME280;62056;52.130;5.428;2023-09-19T09:48:58;101064.34;;;19.00;68.98
73748;BME280;62056;52.130;5.428;2023-09-19T09:51:50;101063.31;;;19.05;68.77
73748;BME280;62056;52.130;5.428;2023-09-19T09:54:40;101064.31;;;19.13;68.11
73748;BME280;62056;52.130;5.428;2023-09-19T09:57:24;101059.81;;;19.29;66.98
73748;BME280;62056;52.130;5.428;2023-09-19T09:59:57;101067.47;;;19.27;66.93
73748;BME280;62056;52.130;5.428;2023-09-19T10:02:43;101058.09;;;19.37;66.91
73748;BME280;62056;52.130;5.428;2023-09-19T10:05:18;101065.53;;;19.40;65.97
73748;BME280;62056;52.130;5.428;2023-09-19T10:07:55;101058.41;;;19.48;66.53
73748;BME280;62056;52.130;5.428;2023-09-19T10:10:37;101069.41;;;19.55;65.94
73748;BME280;62056;52.130;5.428;2023-09-19T10:13:13;101065.25;;;19.57;64.70
73748;BME280;62056;52.130;5.428;2023-09-19T10:15:43;101072.34;;;19.50;64.84
73748;BME280;62056;52.130;5.428;2023-09-19T10:18:22;101070.44;;;19.50;64.70
73748;BME280;62056;52.130;5.428;2023-09-19T10:20:49;101063.44;;;19.61;64.55
73748;BME280;62056;52.130;5.428;2023-09-19T10:23:19;101068.41;;;19.47;64.43
73748;BME280;62056;52.130;5.428;2023-09-19T10:25:51;101072.13;;;19.55;64.71
73748;BME280;62056;52.130;5.428;2023-09-19T10:28:20;101059.41;;;19.55;63.51
73748;BME280;62056;52.130;5.428;2023-09-19T10:30:50;101049.63;;;19.63;63.93
73748;BME280;62056;52.130;5.428;2023-09-19T10:33:19;101061.88;;;19.60;63.33
73748;BME280;62056;52.130;5.428;2023-09-19T10:35:49;101053.34;;;19.58;63.86
73748;BME280;62056;52.130;5.428;2023-09-19T10:38:19;101047.56;;;19.72;63.90
73748;BME280;62056;52.130;5.428;2023-09-19T10:40:54;101038.88;;;19.79;64.01
73748;BME280;62056;52.130;5.428;2023-09-19T10:43:26;101033.94;;;19.81;63.67
73748;BME280;62056;52.130;5.428;2023-09-19T10:46:07;101032.50;;;19.99;64.11
73748;BME280;62056;52.130;5.428;2023-09-19T10:48:36;101028.44;;;20.06;63.41
73748;BME280;62056;52.130;5.428;2023-09-19T10:51:14;101021.09;;;20.06;63.27
73748;BME280;62056;52.130;5.428;2023-09-19T10:53:50;101027.22;;;20.03;63.09
73748;BME280;62056;52.130;5.428;2023-09-19T10:56:27;101021.19;;;20.10;63.44
73748;BME280;62056;52.130;5.428;2023-09-19T10:59:10;101013.66;;;20.15;62.35
73748;BME280;62056;52.130;5.428;2023-09-19T11:04:24;101015.13;;;20.13;61.89
73748;BME280;62056;52.130;5.428;2023-09-19T11:18:50;101005.38;;;20.40;61.42
73748;BME280;62056;52.130;5.428;2023-09-19T11:27:09;101002.94;;;20.51;61.24
73748;BME280;62056;52.130;5.428;2023-09-19T11:29:38;101001.53;;;20.57;61.42
73748;BME280;62056;52.130;5.428;2023-09-19T11:32:06;100986.03;;;20.70;61.02
73748;BME280;62056;52.130;5.428;2023-09-19T11:37:03;100994.78;;;20.63;60.20
73748;BME280;62056;52.130;5.428;2023-09-19T11:40:09;100984.66;;;20.60;59.85
73748;BME280;62056;52.130;5.428;2023-09-19T11:42:47;100980.06;;;20.60;59.42
73748;BME280;62056;52.130;5.428;2023-09-19T11:48:24;100985.88;;;20.63;59.92
73748;BME280;62056;52.130;5.428;2023-09-19T11:50:54;100978.34;;;20.56;60.01
73748;BME280;62056;52.130;5.428;2023-09-19T11:53:22;100987.59;;;20.55;59.81
73748;BME280;62056;52.130;5.428;2023-09-19T11:55:50;100963.28;;;20.71;59.38
73748;BME280;62056;52.130;5.428;2023-09-19T11:58:17;100984.31;;;20.61;59.54
73748;BME280;62056;52.130;5.428;2023-09-19T12:00:53;100956.84;;;20.75;58.36
73748;BME280;62056;52.130;5.428;2023-09-19T12:03:21;100984.41;;;20.65;59.01
73748;BME280;62056;52.130;5.428;2023-09-19T12:05:48;100984.72;;;20.79;58.69
73748;BME280;62056;52.130;5.428;2023-09-19T12:08:15;100999.28;;;20.75;58.46
73748;BME280;62056;52.130;5.428;2023-09-19T12:10:50;101001.53;;;20.73;58.66
73748;BME280;62056;52.130;5.428;2023-09-19T12:13:21;100994.25;;;20.73;58.49
73748;BME280;62056;52.130;5.428;2023-09-19T12:15:48;100996.75;;;20.82;58.26
73748;BME280;62056;52.130;5.428;2023-09-19T12:18:32;100997.59;;;20.86;57.65
73748;BME280;62056;52.130;5.428;2023-09-19T12:21:00;100974.16;;;20.90;58.08
73748;BME280;62056;52.130;5.428;2023-09-19T12:23:31;100975.66;;;20.88;57.90
73748;BME280;62056;52.130;5.428;2023-09-19T12:26:02;100988.72;;;20.86;57.46
73748;BME280;62056;52.130;5.428;2023-09-19T12:28:41;100977.47;;;20.84;57.86
73748;BME280;62056;52.130;5.428;2023-09-19T12:31:11;100987.06;;;20.81;57.97
73748;BME280;62056;52.130;5.428;2023-09-19T12:33:39;100971.81;;;20.73;58.04
73748;BME280;62056;52.130;5.428;2023-09-19T12:36:21;100987.91;;;20.85;57.88
73748;BME280;62056;52.130;5.428;2023-09-19T12:38:58;100976.97;;;20.78;58.00
73748;BME280;62056;52.130;5.428;2023-09-19T12:41:35;100976.44;;;20.72;58.38
73748;BME280;62056;52.130;5.428;2023-09-19T12:44:04;100973.81;;;20.76;57.94
73748;BME280;62056;52.130;5.428;2023-09-19T12:46:36;100991.25;;;20.78;57.80
73748;BME280;62056;52.130;5.428;2023-09-19T12:49:21;100982.13;;;20.67;58.23
73748;BME280;62056;52.130;5.428;2023-09-19T12:51:55;100994.44;;;20.65;58.31
73748;BME280;62056;52.130;5.428;2023-09-19T12:54:40;100992.50;;;20.65;58.38
73748;BME280;62056;52.130;5.428;2023-09-19T12:57:07;100996.16;;;20.57;59.16
73748;BME280;62056;52.130;5.428;2023-09-19T12:59:33;100977.56;;;20.55;59.46
73748;BME280;62056;52.130;5.428;2023-09-19T13:02:05;100997.63;;;20.54;59.55
73748;BME280;62056;52.130;5.428;2023-09-19T13:04:34;100986.81;;;20.54;59.80
73748;BME280;62056;52.130;5.428;2023-09-19T13:07:06;100978.00;;;20.57;59.51
73748;BME280;62056;52.130;5.428;2023-09-19T13:09:35;100987.44;;;20.64;59.27
73748;BME280;62056;52.130;5.428;2023-09-19T13:12:30;100989.88;;;20.69;59.50
73748;BME280;62056;52.130;5.428;2023-09-19T13:15:11;100975.53;;;20.65;59.04
73748;BME280;62056;52.130;5.428;2023-09-19T13:17:47;100979.16;;;20.72;59.25
73748;BME280;62056;52.130;5.428;2023-09-19T13:20:26;100983.34;;;20.70;59.64
73748;BME280;62056;52.130;5.428;2023-09-19T13:23:02;101006.00;;;20.65;59.48
73748;BME280;62056;52.130;5.428;2023-09-19T13:25:53;100995.63;;;20.67;59.58
73748;BME280;62056;52.130;5.428;2023-09-19T13:28:20;101007.22;;;20.68;59.87
73748;BME280;62056;52.130;5.428;2023-09-19T13:30:50;101019.09;;;20.63;60.02
73748;BME280;62056;52.130;5.428;2023-09-19T13:33:16;100998.06;;;20.56;60.21
73748;BME280;62056;52.130;5.428;2023-09-19T13:35:47;100996.91;;;20.57;60.48
73748;BME280;62056;52.130;5.428;2023-09-19T13:38:18;100988.94;;;20.61;59.95
73748;BME280;62056;52.130;5.428;2023-09-19T13:40:48;100987.44;;;20.64;60.62
73748;BME280;62056;52.130;5.428;2023-09-19T13:43:19;100977.22;;;20.73;60.57
73748;BME280;62056;52.130;5.428;2023-09-19T13:45:48;100972.34;;;20.78;60.28
73748;BME280;62056;52.130;5.428;2023-09-19T13:48:18;100978.25;;;20.84;60.15
73748;BME280;62056;52.130;5.428;2023-09-19T13:50:51;100967.09;;;20.86;59.95
73748;BME280;62056;52.130;5.428;2023-09-19T13:53:19;100961.69;;;20.86;59.83
73748;BME280;62056;52.130;5.428;2023-09-19T13:55:47;100964.97;;;20.95;59.33
73748;BME280;62056;52.130;5.428;2023-09-19T13:58:15;100965.25;;;20.90;59.34